»·PEaware :: N416JK KMRY-KVNY

N416JK :: KMRY-KVNY

FLIGHT INFORMATION

Flight Status: Arrived
Operator: Privately registered:
United States
More flights under this callsign
Pilot: John K. (4202)
Aircraft: Unknown
(EPIC)
More flights by this aircraft type
Origin: KMRY Monterey Peninsula
United States
Destination: KVNY Van Nuys
United States
More flights between these airports :: More routes between these airports
Route: MRY5 SNS J6 AVE FIM FERN7
File this flight plan on PilotEdge
Remarks: Flown yesterday in the Eclipse. Today, in the Hot Start TBM!
Altitude:
(Current/Filed)
19,000ft
Speed:
(Current/Filed)
300kts
Departed: 30-Sep-22 09:00 AM
Arrived: 30-Sep-22 10:06 AM
Distance/Time
Traveled:
217nm/1:06
Distance/Time
To Go:
Arrived

Flight Plot

Page will automatically refresh every two minutes.

Flight plan parsing failed; only flown route is shown


Map Options




Map Legend


Flown Route
Filed Route
Departure Airport
Arrival Airport
Navaid (VOR, NDB)
Fix

Horizontal Profiles

Position Reports

Time Latitude Longitude Heading Altitude Ground
Speed
30-Sep-22 08:45 36.588724 -121.855670 0 165ft 0kts
30-Sep-22 08:46 36.588724 -121.855670 345 165ft 0kts
30-Sep-22 08:47 36.588724 -121.855670 345 165ft 0kts
30-Sep-22 08:48 36.588724 -121.855670 345 165ft 0kts
30-Sep-22 08:49 36.588724 -121.855670 345 165ft 0kts
30-Sep-22 08:50 36.588724 -121.855670 345 165ft 0kts
30-Sep-22 08:51 36.588724 -121.855670 345 165ft 0kts
30-Sep-22 08:52 36.588724 -121.855670 345 165ft 0kts
30-Sep-22 08:53 36.590402 -121.856236 341 157ft 0kts
30-Sep-22 08:54 36.590169 -121.856534 143 158ft 0kts
30-Sep-22 08:55 36.589894 -121.855821 193 160ft 0kts
30-Sep-22 08:56 36.589742 -121.856209 322 160ft 2kts
30-Sep-22 08:57 36.589888 -121.856223 18 159ft 0kts
30-Sep-22 08:58 36.590764 -121.855555 93 157ft 10kts
30-Sep-22 08:59 36.584393 -121.812200 65 1334ft 188kts
30-Sep-22 09:00 36.632831 -121.806456 341 3315ft 206kts
30-Sep-22 09:01 36.686402 -121.828904 341 4511ft 201kts
30-Sep-22 09:02 36.710791 -121.883116 277 5702ft 201kts
30-Sep-22 09:03 36.718667 -121.950558 281 6886ft 187kts
30-Sep-22 09:04 36.728064 -122.017630 282 7316ft 196kts
30-Sep-22 09:05 36.721154 -122.075544 197 8292ft 188kts
30-Sep-22 09:06 36.683082 -122.043285 132 9557ft 163kts
30-Sep-22 09:07 36.653340 -122.005563 132 10823ft 142kts
30-Sep-22 09:08 36.638704 -121.965742 109 12081ft 121kts
30-Sep-22 09:09 36.619324 -121.904916 110 13534ft 252kts
30-Sep-22 09:10 36.589840 -121.815459 111 14866ft 297kts
30-Sep-22 09:11 36.557805 -121.718840 111 16170ft 306kts
30-Sep-22 09:12 36.525223 -121.620811 111 17474ft 306kts
30-Sep-22 09:13 36.492835 -121.523736 111 18771ft 303kts
30-Sep-22 09:14 36.458229 -121.425171 127 18966ft 313kts
30-Sep-22 09:15 36.389253 -121.362660 144 18981ft 307kts
30-Sep-22 09:16 36.319475 -121.301939 144 18981ft 306kts
30-Sep-22 09:17 36.249824 -121.241423 144 18980ft 307kts
30-Sep-22 09:18 36.180060 -121.180927 144 18982ft 307kts
30-Sep-22 09:19 36.110209 -121.120497 144 19026ft 305kts
30-Sep-22 09:20 36.040667 -121.060476 144 19028ft 306kts
30-Sep-22 09:21 35.976087 -120.994338 111 19026ft 304kts
30-Sep-22 09:22 35.945418 -120.896759 110 19028ft 304kts
30-Sep-22 09:23 35.914378 -120.799817 110 19028ft 305kts
30-Sep-22 09:24 35.883067 -120.702535 110 19026ft 305kts
30-Sep-22 09:25 35.851662 -120.605168 110 19026ft 305kts
30-Sep-22 09:26 35.820206 -120.508021 110 19026ft 305kts
30-Sep-22 09:27 35.788623 -120.410800 110 19026ft 306kts
30-Sep-22 09:28 35.757021 -120.313835 110 19026ft 306kts
30-Sep-22 09:29 35.725250 -120.216723 110 19026ft 305kts
30-Sep-22 09:30 35.693653 -120.120355 110 19026ft 304kts
30-Sep-22 09:31 35.661992 -120.024147 110 19027ft 304kts
30-Sep-22 09:32 35.609475 -119.945844 143 19026ft 309kts
30-Sep-22 09:33 35.539106 -119.885194 143 18981ft 310kts
30-Sep-22 09:34 35.479376 -119.833621 143 18981ft 309kts
30-Sep-22 09:35 35.427589 -119.788973 143 18981ft 309kts
30-Sep-22 09:36 35.357215 -119.728420 143 18981ft 310kts
30-Sep-22 09:37 35.286775 -119.667927 143 18982ft 310kts
30-Sep-22 09:38 35.216401 -119.607627 143 18980ft 309kts
30-Sep-22 09:39 35.146401 -119.547777 143 18982ft 305kts
30-Sep-22 09:40 35.077120 -119.488666 143 18982ft 304kts
30-Sep-22 09:41 35.009583 -119.431168 143 18443ft 288kts
30-Sep-22 09:42 34.944663 -119.375990 143 17448ft 282kts
30-Sep-22 09:43 34.880561 -119.321627 144 16451ft 280kts
30-Sep-22 09:44 34.816880 -119.267729 144 15447ft 279kts
30-Sep-22 09:45 34.753568 -119.214242 144 14447ft 277kts
30-Sep-22 09:46 34.690407 -119.160958 145 13534ft 275kts
30-Sep-22 09:47 34.627879 -119.108379 145 12632ft 275kts
30-Sep-22 09:48 34.564805 -119.055405 145 11630ft 276kts
30-Sep-22 09:49 34.502280 -119.002982 145 10994ft 265kts
30-Sep-22 09:50 34.461442 -118.939698 91 11000ft 248kts
30-Sep-22 09:51 34.458613 -118.858697 91 10323ft 231kts
30-Sep-22 09:52 34.455923 -118.783532 91 8414ft 216kts
30-Sep-22 09:53 34.453949 -118.712926 91 6621ft 206kts
30-Sep-22 09:54 34.454488 -118.646736 91 6167ft 179kts
30-Sep-22 09:55 34.455463 -118.592219 91 6134ft 149kts
30-Sep-22 09:56 34.456627 -118.540203 91 5468ft 159kts
30-Sep-22 09:57 34.435015 -118.511912 175 5037ft 114kts
30-Sep-22 09:58 34.408289 -118.509195 176 5042ft 86kts
30-Sep-22 09:59 34.380771 -118.506547 178 4612ft 111kts
30-Sep-22 10:00 34.346269 -118.503302 175 3839ft 131kts
30-Sep-22 10:01 34.309479 -118.499852 174 2987ft 133kts
30-Sep-22 10:02 34.275082 -118.496555 172 2188ft 108kts
30-Sep-22 10:03 34.247368 -118.493920 172 1564ft 94kts
30-Sep-22 10:04 34.221684 -118.491409 174 966ft 93kts
30-Sep-22 10:05 34.209274 -118.490145 180 777ft 27kts
30-Sep-22 10:06 34.206529 -118.491107 239 771ft 0kts
30-Sep-22 10:07 34.205023 -118.492268 161 771ft 0kts
30-Sep-22 10:09 34.205023 -118.492268 161 771ft 0kts

Navigation Log

Ident Type
Flight plan parsing failed, navigation log unavailable